sensor_id;sensor_type;location;lat;lon;timestamp;P1;durP1;ratioP1;P2;durP2;ratioP2
20036;SDS011;10179;42.640;23.312;2023-06-24T00:00:44;14.18;;;7.60;;
20036;SDS011;10179;42.640;23.312;2023-06-24T00:03:10;14.90;;;7.47;;
20036;SDS011;10179;42.640;23.312;2023-06-24T00:05:38;14.75;;;8.02;;
20036;SDS011;10179;42.640;23.312;2023-06-24T00:08:04;15.43;;;8.02;;
20036;SDS011;10179;42.640;23.312;2023-06-24T00:10:33;13.95;;;7.75;;
20036;SDS011;10179;42.640;23.312;2023-06-24T00:12:58;12.38;;;7.50;;
20036;SDS011;10179;42.640;23.312;2023-06-24T00:15:26;12.57;;;7.03;;
20036;SDS011;10179;42.640;23.312;2023-06-24T00:17:52;17.40;;;8.10;;
20036;SDS011;10179;42.640;23.312;2023-06-24T00:20:17;15.90;;;7.72;;
20036;SDS011;10179;42.640;23.312;2023-06-24T00:22:45;15.75;;;8.30;;
20036;SDS011;10179;42.640;23.312;2023-06-24T00:25:13;14.90;;;8.15;;
20036;SDS011;10179;42.640;23.312;2023-06-24T00:27:40;14.57;;;8.48;;
20036;SDS011;10179;42.640;23.312;2023-06-24T00:30:06;12.55;;;8.23;;
20036;SDS011;10179;42.640;23.312;2023-06-24T00:32:32;15.05;;;9.00;;
20036;SDS011;10179;42.640;23.312;2023-06-24T00:34:57;14.25;;;8.73;;
20036;SDS011;10179;42.640;23.312;2023-06-24T00:37:25;17.23;;;7.63;;
20036;SDS011;10179;42.640;23.312;2023-06-24T00:39:50;15.27;;;8.50;;
20036;SDS011;10179;42.640;23.312;2023-06-24T00:42:15;15.48;;;8.23;;
20036;SDS011;10179;42.640;23.312;2023-06-24T00:44:41;17.50;;;8.93;;
20036;SDS011;10179;42.640;23.312;2023-06-24T00:47:07;13.88;;;8.25;;
20036;SDS011;10179;42.640;23.312;2023-06-24T00:49:33;15.63;;;8.82;;
20036;SDS011;10179;42.640;23.312;2023-06-24T00:51:59;18.98;;;9.10;;
20036;SDS011;10179;42.640;23.312;2023-06-24T00:54:26;14.02;;;8.48;;
20036;SDS011;10179;42.640;23.312;2023-06-24T00:56:56;13.30;;;8.82;;
20036;SDS011;10179;42.640;23.312;2023-06-24T00:59:22;17.75;;;9.18;;
20036;SDS011;10179;42.640;23.312;2023-06-24T01:01:48;18.67;;;8.43;;
20036;SDS011;10179;42.640;23.312;2023-06-24T01:04:17;15.27;;;8.05;;
20036;SDS011;10179;42.640;23.312;2023-06-24T01:06:43;17.60;;;7.82;;
20036;SDS011;10179;42.640;23.312;2023-06-24T01:09:09;17.67;;;7.88;;
20036;SDS011;10179;42.640;23.312;2023-06-24T01:11:35;14.02;;;8.07;;
20036;SDS011;10179;42.640;23.312;2023-06-24T01:14:00;14.77;;;8.50;;
20036;SDS011;10179;42.640;23.312;2023-06-24T01:32:52;15.88;;;8.63;;
20036;SDS011;10179;42.640;23.312;2023-06-24T01:35:23;17.70;;;8.20;;
20036;SDS011;10179;42.640;23.312;2023-06-24T01:37:53;14.80;;;8.07;;
20036;SDS011;10179;42.640;23.312;2023-06-24T01:40:28;11.75;;;7.55;;
20036;SDS011;10179;42.640;23.312;2023-06-24T01:42:58;15.40;;;7.82;;
20036;SDS011;10179;42.640;23.312;2023-06-24T01:45:29;12.80;;;8.55;;
20036;SDS011;10179;42.640;23.312;2023-06-24T01:48:09;17.25;;;9.20;;
20036;SDS011;10179;42.640;23.312;2023-06-24T01:50:39;19.63;;;9.23;;
20036;SDS011;10179;42.640;23.312;2023-06-24T01:53:07;14.73;;;8.93;;
20036;SDS011;10179;42.640;23.312;2023-06-24T01:55:34;19.63;;;8.82;;
20036;SDS011;10179;42.640;23.312;2023-06-24T01:58:03;15.73;;;8.82;;
20036;SDS011;10179;42.640;23.312;2023-06-24T02:00:32;13.35;;;8.50;;
20036;SDS011;10179;42.640;23.312;2023-06-24T02:03:00;13.70;;;8.85;;
20036;SDS011;10179;42.640;23.312;2023-06-24T02:05:26;14.88;;;9.20;;
20036;SDS011;10179;42.640;23.312;2023-06-24T02:07:53;14.93;;;8.90;;
20036;SDS011;10179;42.640;23.312;2023-06-24T02:10:20;12.95;;;8.45;;
20036;SDS011;10179;42.640;23.312;2023-06-24T02:12:47;12.98;;;8.25;;
20036;SDS011;10179;42.640;23.312;2023-06-24T02:15:14;17.38;;;8.52;;
20036;SDS011;10179;42.640;23.312;2023-06-24T02:17:41;13.15;;;8.63;;
20036;SDS011;10179;42.640;23.312;2023-06-24T02:20:08;19.42;;;9.05;;
20036;SDS011;10179;42.640;23.312;2023-06-24T02:22:35;16.88;;;9.07;;
20036;SDS011;10179;42.640;23.312;2023-06-24T02:25:04;14.38;;;8.50;;
20036;SDS011;10179;42.640;23.312;2023-06-24T02:27:31;12.70;;;7.93;;
20036;SDS011;10179;42.640;23.312;2023-06-24T02:29:57;15.20;;;8.98;;
20036;SDS011;10179;42.640;23.312;2023-06-24T02:32:25;13.15;;;8.02;;
20036;SDS011;10179;42.640;23.312;2023-06-24T02:34:50;16.98;;;8.63;;
20036;SDS011;10179;42.640;23.312;2023-06-24T02:37:15;11.80;;;7.60;;
20036;SDS011;10179;42.640;23.312;2023-06-24T02:39:41;13.85;;;8.75;;
20036;SDS011;10179;42.640;23.312;2023-06-24T02:42:10;13.65;;;8.30;;
20036;SDS011;10179;42.640;23.312;2023-06-24T02:44:36;14.55;;;7.75;;
20036;SDS011;10179;42.640;23.312;2023-06-24T02:47:03;17.38;;;8.13;;
20036;SDS011;10179;42.640;23.312;2023-06-24T02:49:30;15.07;;;8.93;;
20036;SDS011;10179;42.640;23.312;2023-06-24T02:51:55;15.70;;;8.40;;
20036;SDS011;10179;42.640;23.312;2023-06-24T02:54:21;20.38;;;7.60;;
20036;SDS011;10179;42.640;23.312;2023-06-24T02:56:47;15.73;;;8.80;;
20036;SDS011;10179;42.640;23.312;2023-06-24T02:59:13;20.70;;;8.68;;
20036;SDS011;10179;42.640;23.312;2023-06-24T03:01:38;14.07;;;7.72;;
20036;SDS011;10179;42.640;23.312;2023-06-24T03:04:05;15.90;;;8.68;;
20036;SDS011;10179;42.640;23.312;2023-06-24T03:06:31;17.15;;;7.95;;
20036;SDS011;10179;42.640;23.312;2023-06-24T03:08:57;13.50;;;8.40;;
20036;SDS011;10179;42.640;23.312;2023-06-24T03:11:23;13.55;;;8.52;;
20036;SDS011;10179;42.640;23.312;2023-06-24T03:13:50;17.02;;;8.27;;
20036;SDS011;10179;42.640;23.312;2023-06-24T03:16:16;12.80;;;8.05;;
20036;SDS011;10179;42.640;23.312;2023-06-24T03:18:41;17.13;;;8.90;;
20036;SDS011;10179;42.640;23.312;2023-06-24T03:21:10;14.60;;;8.63;;
20036;SDS011;10179;42.640;23.312;2023-06-24T03:23:36;26.02;;;9.18;;
20036;SDS011;10179;42.640;23.312;2023-06-24T03:26:01;14.40;;;8.13;;
20036;SDS011;10179;42.640;23.312;2023-06-24T03:28:29;14.60;;;8.15;;
20036;SDS011;10179;42.640;23.312;2023-06-24T03:30:55;17.00;;;8.25;;
20036;SDS011;10179;42.640;23.312;2023-06-24T03:33:21;12.43;;;7.93;;
20036;SDS011;10179;42.640;23.312;2023-06-24T03:35:47;18.92;;;8.50;;
20036;SDS011;10179;42.640;23.312;2023-06-24T03:38:12;14.93;;;8.43;;
20036;SDS011;10179;42.640;23.312;2023-06-24T03:40:38;13.60;;;8.07;;
20036;SDS011;10179;42.640;23.312;2023-06-24T03:43:03;14.82;;;8.80;;
20036;SDS011;10179;42.640;23.312;2023-06-24T03:45:28;13.32;;;8.60;;
20036;SDS011;10179;42.640;23.312;2023-06-24T03:47:54;15.82;;;9.65;;
20036;SDS011;10179;42.640;23.312;2023-06-24T03:50:19;15.68;;;9.20;;
20036;SDS011;10179;42.640;23.312;2023-06-24T03:52:45;17.17;;;8.60;;
20036;SDS011;10179;42.640;23.312;2023-06-24T03:55:10;16.77;;;8.50;;
20036;SDS011;10179;42.640;23.312;2023-06-24T03:57:36;16.70;;;9.52;;
20036;SDS011;10179;42.640;23.312;2023-06-24T04:00:02;13.80;;;9.63;;
20036;SDS011;10179;42.640;23.312;2023-06-24T04:02:37;20.60;;;10.23;;
20036;SDS011;10179;42.640;23.312;2023-06-24T04:05:03;17.63;;;10.20;;
20036;SDS011;10179;42.640;23.312;2023-06-24T04:07:31;15.85;;;9.43;;
20036;SDS011;10179;42.640;23.312;2023-06-24T04:09:56;17.50;;;9.98;;
20036;SDS011;10179;42.640;23.312;2023-06-24T04:12:22;14.68;;;8.45;;
20036;SDS011;10179;42.640;23.312;2023-06-24T04:14:47;21.25;;;9.43;;
20036;SDS011;10179;42.640;23.312;2023-06-24T04:17:13;19.17;;;9.43;;
20036;SDS011;10179;42.640;23.312;2023-06-24T04:19:38;14.98;;;9.25;;
20036;SDS011;10179;42.640;23.312;2023-06-24T04:22:04;19.05;;;9.65;;
20036;SDS011;10179;42.640;23.312;2023-06-24T04:24:30;15.98;;;8.85;;
20036;SDS011;10179;42.640;23.312;2023-06-24T04:26:55;19.20;;;9.85;;
20036;SDS011;10179;42.640;23.312;2023-06-24T04:29:20;13.70;;;9.02;;
20036;SDS011;10179;42.640;23.312;2023-06-24T04:31:46;12.25;;;9.05;;
20036;SDS011;10179;42.640;23.312;2023-06-24T04:34:11;15.18;;;8.95;;
20036;SDS011;10179;42.640;23.312;2023-06-24T04:36:37;13.40;;;8.13;;
20036;SDS011;10179;42.640;23.312;2023-06-24T04:39:03;17.25;;;8.85;;
20036;SDS011;10179;42.640;23.312;2023-06-24T04:41:29;12.98;;;8.27;;
20036;SDS011;10179;42.640;23.312;2023-06-24T04:43:54;17.42;;;8.70;;
20036;SDS011;10179;42.640;23.312;2023-06-24T04:46:20;21.30;;;9.25;;
20036;SDS011;10179;42.640;23.312;2023-06-24T04:48:46;13.27;;;8.18;;
20036;SDS011;10179;42.640;23.312;2023-06-24T04:51:12;13.05;;;8.18;;
20036;SDS011;10179;42.640;23.312;2023-06-24T04:53:38;13.48;;;8.10;;
20036;SDS011;10179;42.640;23.312;2023-06-24T04:56:03;17.00;;;8.23;;
20036;SDS011;10179;42.640;23.312;2023-06-24T04:58:28;15.52;;;8.27;;
20036;SDS011;10179;42.640;23.312;2023-06-24T05:00:54;12.05;;;7.95;;
20036;SDS011;10179;42.640;23.312;2023-06-24T05:03:19;15.80;;;8.25;;
20036;SDS011;10179;42.640;23.312;2023-06-24T05:05:45;13.68;;;7.63;;
20036;SDS011;10179;42.640;23.312;2023-06-24T05:08:10;14.55;;;8.43;;
20036;SDS011;10179;42.640;23.312;2023-06-24T05:10:35;13.18;;;7.85;;
20036;SDS011;10179;42.640;23.312;2023-06-24T05:13:01;15.73;;;8.40;;
20036;SDS011;10179;42.640;23.312;2023-06-24T05:15:26;16.00;;;9.43;;
20036;SDS011;10179;42.640;23.312;2023-06-24T05:17:52;14.15;;;8.65;;
20036;SDS011;10179;42.640;23.312;2023-06-24T05:20:17;14.40;;;9.10;;
20036;SDS011;10179;42.640;23.312;2023-06-24T05:22:43;13.50;;;8.38;;
20036;SDS011;10179;42.640;23.312;2023-06-24T05:25:08;13.40;;;8.75;;
20036;SDS011;10179;42.640;23.312;2023-06-24T05:27:34;14.50;;;9.10;;
20036;SDS011;10179;42.640;23.312;2023-06-24T05:29:59;16.00;;;8.40;;
20036;SDS011;10179;42.640;23.312;2023-06-24T05:32:25;14.98;;;9.18;;
20036;SDS011;10179;42.640;23.312;2023-06-24T05:34:50;16.55;;;8.70;;
20036;SDS011;10179;42.640;23.312;2023-06-24T05:37:16;15.88;;;9.35;;
20036;SDS011;10179;42.640;23.312;2023-06-24T05:39:41;16.30;;;8.65;;
20036;SDS011;10179;42.640;23.312;2023-06-24T05:42:06;13.88;;;8.70;;
20036;SDS011;10179;42.640;23.312;2023-06-24T05:44:32;12.55;;;8.50;;
20036;SDS011;10179;42.640;23.312;2023-06-24T05:46:58;12.15;;;7.50;;
20036;SDS011;10179;42.640;23.312;2023-06-24T05:49:24;12.38;;;8.38;;
20036;SDS011;10179;42.640;23.312;2023-06-24T05:51:49;13.55;;;7.97;;
20036;SDS011;10179;42.640;23.312;2023-06-24T05:54:15;10.55;;;7.18;;
20036;SDS011;10179;42.640;23.312;2023-06-24T05:56:40;12.10;;;6.90;;
20036;SDS011;10179;42.640;23.312;2023-06-24T05:59:06;13.18;;;6.55;;
20036;SDS011;10179;42.640;23.312;2023-06-24T06:01:31;10.90;;;6.80;;
20036;SDS011;10179;42.640;23.312;2023-06-24T06:03:56;14.45;;;7.15;;
20036;SDS011;10179;42.640;23.312;2023-06-24T06:06:22;11.05;;;6.65;;
20036;SDS011;10179;42.640;23.312;2023-06-24T06:08:47;8.57;;;6.38;;
20036;SDS011;10179;42.640;23.312;2023-06-24T06:11:13;11.25;;;6.97;;
20036;SDS011;10179;42.640;23.312;2023-06-24T06:13:38;11.95;;;7.30;;
20036;SDS011;10179;42.640;23.312;2023-06-24T06:16:03;12.68;;;7.63;;
20036;SDS011;10179;42.640;23.312;2023-06-24T06:18:29;13.52;;;7.20;;
20036;SDS011;10179;42.640;23.312;2023-06-24T06:20:54;12.73;;;7.78;;
20036;SDS011;10179;42.640;23.312;2023-06-24T06:23:20;13.57;;;7.75;;
20036;SDS011;10179;42.640;23.312;2023-06-24T06:25:46;11.43;;;6.80;;
20036;SDS011;10179;42.640;23.312;2023-06-24T06:28:11;12.05;;;7.65;;
20036;SDS011;10179;42.640;23.312;2023-06-24T06:30:36;12.65;;;7.35;;
20036;SDS011;10179;42.640;23.312;2023-06-24T06:33:02;16.92;;;7.93;;
20036;SDS011;10179;42.640;23.312;2023-06-24T06:35:27;13.75;;;8.57;;
20036;SDS011;10179;42.640;23.312;2023-06-24T06:37:53;14.60;;;7.93;;
20036;SDS011;10179;42.640;23.312;2023-06-24T06:40:22;14.60;;;8.18;;
20036;SDS011;10179;42.640;23.312;2023-06-24T06:42:47;10.63;;;7.47;;
20036;SDS011;10179;42.640;23.312;2023-06-24T06:45:14;13.27;;;7.82;;
20036;SDS011;10179;42.640;23.312;2023-06-24T06:47:39;14.05;;;8.55;;
20036;SDS011;10179;42.640;23.312;2023-06-24T06:50:05;12.80;;;8.23;;
20036;SDS011;10179;42.640;23.312;2023-06-24T06:52:32;15.15;;;9.25;;
20036;SDS011;10179;42.640;23.312;2023-06-24T06:54:58;15.98;;;8.82;;
20036;SDS011;10179;42.640;23.312;2023-06-24T06:57:23;20.25;;;9.90;;
20036;SDS011;10179;42.640;23.312;2023-06-24T06:59:49;18.63;;;9.65;;
20036;SDS011;10179;42.640;23.312;2023-06-24T07:02:16;17.63;;;9.88;;
20036;SDS011;10179;42.640;23.312;2023-06-24T07:04:42;23.33;;;8.95;;
20036;SDS011;10179;42.640;23.312;2023-06-24T07:07:08;18.42;;;9.18;;
20036;SDS011;10179;42.640;23.312;2023-06-24T07:09:33;18.73;;;10.07;;
20036;SDS011;10179;42.640;23.312;2023-06-24T07:11:59;15.60;;;9.55;;
20036;SDS011;10179;42.640;23.312;2023-06-24T07:14:24;16.13;;;9.45;;
20036;SDS011;10179;42.640;23.312;2023-06-24T07:16:50;13.10;;;8.55;;
20036;SDS011;10179;42.640;23.312;2023-06-24T07:19:16;19.77;;;10.52;;
20036;SDS011;10179;42.640;23.312;2023-06-24T07:21:41;18.00;;;9.40;;
20036;SDS011;10179;42.640;23.312;2023-06-24T07:24:07;18.52;;;9.70;;
20036;SDS011;10179;42.640;23.312;2023-06-24T07:26:32;16.40;;;9.27;;
20036;SDS011;10179;42.640;23.312;2023-06-24T07:28:58;14.48;;;9.15;;
20036;SDS011;10179;42.640;23.312;2023-06-24T07:31:24;15.57;;;8.57;;
20036;SDS011;10179;42.640;23.312;2023-06-24T07:33:50;18.30;;;9.20;;
20036;SDS011;10179;42.640;23.312;2023-06-24T07:36:15;13.85;;;9.02;;
20036;SDS011;10179;42.640;23.312;2023-06-24T07:38:40;17.10;;;9.32;;
20036;SDS011;10179;42.640;23.312;2023-06-24T07:41:06;18.70;;;10.00;;
20036;SDS011;10179;42.640;23.312;2023-06-24T07:43:31;20.38;;;8.77;;
20036;SDS011;10179;42.640;23.312;2023-06-24T07:45:57;15.02;;;8.43;;
20036;SDS011;10179;42.640;23.312;2023-06-24T07:48:22;17.88;;;9.45;;
20036;SDS011;10179;42.640;23.312;2023-06-24T07:50:48;17.67;;;8.98;;
20036;SDS011;10179;42.640;23.312;2023-06-24T07:53:14;17.92;;;9.57;;
20036;SDS011;10179;42.640;23.312;2023-06-24T07:55:39;29.58;;;12.75;;
20036;SDS011;10179;42.640;23.312;2023-06-24T07:58:05;15.25;;;9.45;;
20036;SDS011;10179;42.640;23.312;2023-06-24T08:00:30;14.98;;;9.38;;
20036;SDS011;10179;42.640;23.312;2023-06-24T08:02:59;12.55;;;9.02;;
20036;SDS011;10179;42.640;23.312;2023-06-24T08:05:25;18.58;;;9.13;;
20036;SDS011;10179;42.640;23.312;2023-06-24T08:07:50;14.38;;;9.00;;
20036;SDS011;10179;42.640;23.312;2023-06-24T08:10:16;22.10;;;10.07;;
20036;SDS011;10179;42.640;23.312;2023-06-24T08:12:42;14.48;;;9.10;;
20036;SDS011;10179;42.640;23.312;2023-06-24T08:15:07;12.43;;;8.50;;
20036;SDS011;10179;42.640;23.312;2023-06-24T08:17:33;14.05;;;8.98;;
20036;SDS011;10179;42.640;23.312;2023-06-24T08:19:59;16.92;;;9.02;;
20036;SDS011;10179;42.640;23.312;2023-06-24T08:22:25;15.40;;;8.85;;
20036;SDS011;10179;42.640;23.312;2023-06-24T08:24:50;15.63;;;7.90;;
20036;SDS011;10179;42.640;23.312;2023-06-24T08:27:16;9.70;;;7.72;;
20036;SDS011;10179;42.640;23.312;2023-06-24T08:29:41;14.38;;;7.70;;
20036;SDS011;10179;42.640;23.312;2023-06-24T08:32:06;12.18;;;8.00;;
20036;SDS011;10179;42.640;23.312;2023-06-24T08:34:32;11.40;;;8.30;;
20036;SDS011;10179;42.640;23.312;2023-06-24T08:36:58;15.63;;;8.65;;
20036;SDS011;10179;42.640;23.312;2023-06-24T08:39:24;14.02;;;8.68;;
20036;SDS011;10179;42.640;23.312;2023-06-24T08:41:49;13.68;;;8.45;;
20036;SDS011;10179;42.640;23.312;2023-06-24T08:44:14;13.75;;;8.07;;
20036;SDS011;10179;42.640;23.312;2023-06-24T08:46:40;14.75;;;8.02;;
20036;SDS011;10179;42.640;23.312;2023-06-24T08:51:47;14.00;;;7.95;;
20036;SDS011;10179;42.640;23.312;2023-06-24T08:54:16;10.43;;;8.13;;
20036;SDS011;10179;42.640;23.312;2023-06-24T08:56:44;10.90;;;8.05;;
20036;SDS011;10179;42.640;23.312;2023-06-24T08:59:10;10.70;;;7.30;;
20036;SDS011;10179;42.640;23.312;2023-06-24T09:01:35;11.73;;;7.00;;
20036;SDS011;10179;42.640;23.312;2023-06-24T09:04:01;11.70;;;7.55;;
20036;SDS011;10179;42.640;23.312;2023-06-24T09:06:26;13.07;;;7.82;;
20036;SDS011;10179;42.640;23.312;2023-06-24T09:08:55;12.45;;;8.10;;
20036;SDS011;10179;42.640;23.312;2023-06-24T09:11:26;13.60;;;7.95;;
20036;SDS011;10179;42.640;23.312;2023-06-24T09:13:56;12.85;;;8.02;;
20036;SDS011;10179;42.640;23.312;2023-06-24T09:16:22;13.07;;;8.02;;
20036;SDS011;10179;42.640;23.312;2023-06-24T09:18:49;11.30;;;7.80;;
20036;SDS011;10179;42.640;23.312;2023-06-24T09:21:25;11.10;;;7.82;;
20036;SDS011;10179;42.640;23.312;2023-06-24T09:23:54;11.52;;;7.97;;
20036;SDS011;10179;42.640;23.312;2023-06-24T09:26:24;13.77;;;7.80;;
20036;SDS011;10179;42.640;23.312;2023-06-24T09:28:50;10.27;;;7.50;;
20036;SDS011;10179;42.640;23.312;2023-06-24T09:31:16;13.88;;;7.13;;
20036;SDS011;10179;42.640;23.312;2023-06-24T09:33:42;14.55;;;7.47;;
20036;SDS011;10179;42.640;23.312;2023-06-24T09:36:11;9.25;;;6.93;;
20036;SDS011;10179;42.640;23.312;2023-06-24T09:38:38;9.82;;;7.22;;
20036;SDS011;10179;42.640;23.312;2023-06-24T09:41:06;12.15;;;7.85;;
20036;SDS011;10179;42.640;23.312;2023-06-24T09:43:36;10.73;;;7.30;;
20036;SDS011;10179;42.640;23.312;2023-06-24T09:46:05;15.38;;;8.27;;
20036;SDS011;10179;42.640;23.312;2023-06-24T09:48:31;12.27;;;7.70;;
20036;SDS011;10179;42.640;23.312;2023-06-24T09:50:59;10.68;;;6.72;;
20036;SDS011;10179;42.640;23.312;2023-06-24T09:53:32;15.07;;;7.50;;
20036;SDS011;10179;42.640;23.312;2023-06-24T09:56:03;13.13;;;7.28;;
20036;SDS011;10179;42.640;23.312;2023-06-24T09:58:31;13.50;;;7.57;;
20036;SDS011;10179;42.640;23.312;2023-06-24T10:01:04;10.27;;;6.32;;
20036;SDS011;10179;42.640;23.312;2023-06-24T10:03:32;12.55;;;6.65;;
20036;SDS011;10179;42.640;23.312;2023-06-24T10:06:02;12.77;;;6.65;;
20036;SDS011;10179;42.640;23.312;2023-06-24T10:08:30;12.85;;;6.72;;
20036;SDS011;10179;42.640;23.312;2023-06-24T10:10:56;8.57;;;6.90;;
20036;SDS011;10179;42.640;23.312;2023-06-24T10:13:21;10.82;;;6.90;;
20036;SDS011;10179;42.640;23.312;2023-06-24T10:15:48;10.32;;;6.85;;
20036;SDS011;10179;42.640;23.312;2023-06-24T10:21:00;11.98;;;6.90;;
20036;SDS011;10179;42.640;23.312;2023-06-24T10:26:28;11.25;;;6.88;;
20036;SDS011;10179;42.640;23.312;2023-06-24T10:36:51;10.02;;;6.30;;
20036;SDS011;10179;42.640;23.312;2023-06-24T10:44:52;12.65;;;6.00;;
20036;SDS011;10179;42.640;23.312;2023-06-24T10:47:18;12.10;;;6.10;;
20036;SDS011;10179;42.640;23.312;2023-06-24T10:49:45;7.75;;;5.97;;
20036;SDS011;10179;42.640;23.312;2023-06-24T10:52:11;11.25;;;6.25;;
20036;SDS011;10179;42.640;23.312;2023-06-24T10:54:38;10.80;;;6.15;;
20036;SDS011;10179;42.640;23.312;2023-06-24T10:57:05;9.70;;;6.28;;
20036;SDS011;10179;42.640;23.312;2023-06-24T10:59:34;12.32;;;6.40;;
20036;SDS011;10179;42.640;23.312;2023-06-24T11:02:00;10.05;;;6.47;;
20036;SDS011;10179;42.640;23.312;2023-06-24T11:04:26;7.28;;;5.80;;
20036;SDS011;10179;42.640;23.312;2023-06-24T11:07:01;10.05;;;5.50;;
20036;SDS011;10179;42.640;23.312;2023-06-24T11:09:27;7.97;;;4.80;;
20036;SDS011;10179;42.640;23.312;2023-06-24T11:11:52;11.70;;;6.18;;
20036;SDS011;10179;42.640;23.312;2023-06-24T11:14:21;8.88;;;5.72;;
20036;SDS011;10179;42.640;23.312;2023-06-24T11:16:46;9.55;;;5.70;;
20036;SDS011;10179;42.640;23.312;2023-06-24T11:19:12;9.25;;;5.50;;
20036;SDS011;10179;42.640;23.312;2023-06-24T11:21:39;7.20;;;5.82;;
20036;SDS011;10179;42.640;23.312;2023-06-24T11:24:04;9.13;;;6.00;;
20036;SDS011;10179;42.640;23.312;2023-06-24T11:26:30;7.03;;;5.15;;
20036;SDS011;10179;42.640;23.312;2023-06-24T11:28:56;10.80;;;5.95;;
20036;SDS011;10179;42.640;23.312;2023-06-24T11:31:27;7.82;;;5.07;;
20036;SDS011;10179;42.640;23.312;2023-06-24T11:33:53;11.63;;;5.90;;
20036;SDS011;10179;42.640;23.312;2023-06-24T11:36:19;11.43;;;5.78;;
20036;SDS011;10179;42.640;23.312;2023-06-24T11:38:45;8.77;;;5.97;;
20036;SDS011;10179;42.640;23.312;2023-06-24T11:41:11;11.25;;;5.95;;
20036;SDS011;10179;42.640;23.312;2023-06-24T11:43:36;8.15;;;6.18;;
20036;SDS011;10179;42.640;23.312;2023-06-24T11:46:02;11.82;;;5.60;;
20036;SDS011;10179;42.640;23.312;2023-06-24T11:48:30;8.57;;;5.05;;
20036;SDS011;10179;42.640;23.312;2023-06-24T11:50:56;8.77;;;5.10;;
20036;SDS011;10179;42.640;23.312;2023-06-24T11:53:28;8.63;;;5.28;;
20036;SDS011;10179;42.640;23.312;2023-06-24T11:55:55;11.15;;;5.30;;
20036;SDS011;10179;42.640;23.312;2023-06-24T11:58:21;8.80;;;5.20;;
20036;SDS011;10179;42.640;23.312;2023-06-24T12:00:48;8.88;;;5.00;;
20036;SDS011;10179;42.640;23.312;2023-06-24T12:03:15;10.55;;;5.47;;
20036;SDS011;10179;42.640;23.312;2023-06-24T12:05:40;9.20;;;5.35;;
20036;SDS011;10179;42.640;23.312;2023-06-24T12:08:10;10.23;;;5.30;;
20036;SDS011;10179;42.640;23.312;2023-06-24T12:10:37;8.20;;;5.28;;
20036;SDS011;10179;42.640;23.312;2023-06-24T12:13:04;7.05;;;4.88;;
20036;SDS011;10179;42.640;23.312;2023-06-24T12:15:31;11.20;;;5.35;;
20036;SDS011;10179;42.640;23.312;2023-06-24T12:17:57;9.20;;;5.47;;
20036;SDS011;10179;42.640;23.312;2023-06-24T12:20:24;8.50;;;5.53;;
20036;SDS011;10179;42.640;23.312;2023-06-24T12:22:50;8.93;;;5.70;;
20036;SDS011;10179;42.640;23.312;2023-06-24T12:25:16;10.30;;;5.32;;
20036;SDS011;10179;42.640;23.312;2023-06-24T12:27:42;6.65;;;5.38;;
20036;SDS011;10179;42.640;23.312;2023-06-24T12:30:09;9.00;;;4.90;;
20036;SDS011;10179;42.640;23.312;2023-06-24T12:32:35;10.27;;;5.82;;
20036;SDS011;10179;42.640;23.312;2023-06-24T12:35:01;9.15;;;5.45;;
20036;SDS011;10179;42.640;23.312;2023-06-24T12:37:31;8.68;;;5.18;;
20036;SDS011;10179;42.640;23.312;2023-06-24T12:39:57;11.57;;;5.88;;
20036;SDS011;10179;42.640;23.312;2023-06-24T12:42:24;8.57;;;5.60;;
20036;SDS011;10179;42.640;23.312;2023-06-24T12:44:50;7.78;;;5.28;;
20036;SDS011;10179;42.640;23.312;2023-06-24T12:47:15;13.35;;;5.80;;
20036;SDS011;10179;42.640;23.312;2023-06-24T12:49:41;8.15;;;5.70;;
20036;SDS011;10179;42.640;23.312;2023-06-24T12:52:06;10.63;;;5.60;;
20036;SDS011;10179;42.640;23.312;2023-06-24T12:54:32;8.88;;;5.80;;
20036;SDS011;10179;42.640;23.312;2023-06-24T12:56:57;23.52;;;5.22;;
20036;SDS011;10179;42.640;23.312;2023-06-24T12:59:23;8.57;;;5.55;;
20036;SDS011;10179;42.640;23.312;2023-06-24T13:01:48;8.75;;;4.70;;
20036;SDS011;10179;42.640;23.312;2023-06-24T13:04:14;8.40;;;5.10;;
20036;SDS011;10179;42.640;23.312;2023-06-24T13:06:39;9.57;;;5.45;;
20036;SDS011;10179;42.640;23.312;2023-06-24T13:09:05;7.55;;;4.75;;
20036;SDS011;10179;42.640;23.312;2023-06-24T13:11:30;8.05;;;4.47;;
20036;SDS011;10179;42.640;23.312;2023-06-24T13:13:56;8.27;;;5.13;;
20036;SDS011;10179;42.640;23.312;2023-06-24T13:16:21;8.55;;;5.18;;
20036;SDS011;10179;42.640;23.312;2023-06-24T13:18:47;7.30;;;5.53;;
20036;SDS011;10179;42.640;23.312;2023-06-24T13:21:12;11.23;;;6.32;;
20036;SDS011;10179;42.640;23.312;2023-06-24T13:23:38;17.83;;;6.55;;
20036;SDS011;10179;42.640;23.312;2023-06-24T13:26:05;17.92;;;6.85;;
20036;SDS011;10179;42.640;23.312;2023-06-24T13:28:31;9.82;;;5.95;;
20036;SDS011;10179;42.640;23.312;2023-06-24T13:30:57;15.07;;;6.50;;
20036;SDS011;10179;42.640;23.312;2023-06-24T13:33:22;19.95;;;9.50;;
20036;SDS011;10179;42.640;23.312;2023-06-24T13:35:48;17.33;;;7.53;;
20036;SDS011;10179;42.640;23.312;2023-06-24T13:38:14;11.15;;;6.47;;
20036;SDS011;10179;42.640;23.312;2023-06-24T13:40:40;16.70;;;7.60;;
20036;SDS011;10179;42.640;23.312;2023-06-24T13:43:05;9.77;;;5.75;;
20036;SDS011;10179;42.640;23.312;2023-06-24T13:45:31;16.45;;;5.78;;
20036;SDS011;10179;42.640;23.312;2023-06-24T13:47:56;14.82;;;5.78;;
20036;SDS011;10179;42.640;23.312;2023-06-24T13:50:22;13.80;;;5.28;;
20036;SDS011;10179;42.640;23.312;2023-06-24T13:52:48;17.58;;;5.15;;
20036;SDS011;10179;42.640;23.312;2023-06-24T13:55:13;19.00;;;5.40;;
20036;SDS011;10179;42.640;23.312;2023-06-24T13:57:38;13.40;;;4.50;;
20036;SDS011;10179;42.640;23.312;2023-06-24T14:00:04;16.65;;;5.15;;
20036;SDS011;10179;42.640;23.312;2023-06-24T14:02:30;14.23;;;5.28;;
20036;SDS011;10179;42.640;23.312;2023-06-24T14:04:55;11.60;;;5.05;;
20036;SDS011;10179;42.640;23.312;2023-06-24T14:07:21;16.08;;;4.95;;
20036;SDS011;10179;42.640;23.312;2023-06-24T14:09:46;12.98;;;4.97;;
20036;SDS011;10179;42.640;23.312;2023-06-24T14:12:12;20.38;;;5.88;;
20036;SDS011;10179;42.640;23.312;2023-06-24T14:14:37;11.77;;;5.93;;
20036;SDS011;10179;42.640;23.312;2023-06-24T14:17:03;18.20;;;6.38;;
20036;SDS011;10179;42.640;23.312;2023-06-24T14:19:33;21.48;;;6.10;;
20036;SDS011;10179;42.640;23.312;2023-06-24T14:21:59;12.95;;;5.18;;
20036;SDS011;10179;42.640;23.312;2023-06-24T14:24:24;15.38;;;6.47;;
20036;SDS011;10179;42.640;23.312;2023-06-24T14:26:50;13.90;;;5.65;;
20036;SDS011;10179;42.640;23.312;2023-06-24T14:29:15;17.52;;;7.10;;
20036;SDS011;10179;42.640;23.312;2023-06-24T14:31:41;20.95;;;5.63;;
20036;SDS011;10179;42.640;23.312;2023-06-24T14:34:07;13.52;;;5.28;;
20036;SDS011;10179;42.640;23.312;2023-06-24T14:36:32;15.18;;;5.20;;
20036;SDS011;10179;42.640;23.312;2023-06-24T14:38:57;25.08;;;6.20;;
20036;SDS011;10179;42.640;23.312;2023-06-24T14:41:23;19.25;;;4.88;;
20036;SDS011;10179;42.640;23.312;2023-06-24T14:43:49;18.15;;;5.68;;
20036;SDS011;10179;42.640;23.312;2023-06-24T14:46:14;19.80;;;5.63;;
20036;SDS011;10179;42.640;23.312;2023-06-24T14:48:40;10.27;;;5.50;;
20036;SDS011;10179;42.640;23.312;2023-06-24T14:51:05;18.08;;;5.85;;
20036;SDS011;10179;42.640;23.312;2023-06-24T14:53:31;13.82;;;5.53;;
20036;SDS011;10179;42.640;23.312;2023-06-24T14:55:57;18.25;;;6.55;;